DW6963 Weather Reports


Display with metric or nautical units.
time (UTC)temp
F
wind
direction
speed
MPH
gust
MPH
rain 1hr
in
rain 24hr
in
rain mn
in
humidity
%
barometer
mb
20260505183912 68 0 0.0 0.0 0.00 0.00 0.00 65 1008.7
20260505183412 68 0 0.0 0.0 0.00 0.00 0.00 65 1008.9
20260505182911 68 0 0.0 0.0 0.00 0.00 0.00 65 1009.1
20260505182412 68 0 0.0 0.0 0.00 0.00 0.00 65 1009.1
20260505181912 68 0 0.0 0.0 0.00 0.00 0.00 65 1009.1
20260505181412 68 0 0.0 0.0 0.00 0.00 0.00 65 1009.1
20260505180412 68 0 0.0 0.0 0.00 0.00 0.00 66 1009.2
20260505175912 67 0 0.0 0.0 0.00 0.00 0.00 66 1009.1
20260505175412 67 0 0.0 0.0 0.00 0.00 0.00 66 1009.2
20260505174912 67 0 0.0 0.0 0.00 0.00 0.00 66 1009.3
20260505174411 67 0 0.0 0.0 0.00 0.00 0.00 66 1009.3
20260505173912 67 0 0.0 0.0 0.00 0.00 0.00 67 1009.3
20260505173412 66 0 0.0 0.0 0.00 0.00 0.00 67 1009.4
20260505172912 66 0 0.0 0.0 0.00 0.00 0.00 66 1009.3
20260505172412 66 0 0.0 0.0 0.00 0.00 0.00 66 1009.4
20260505171912 66 0 0.0 0.0 0.00 0.00 0.00 66 1009.4
20260505171412 66 0 0.0 0.0 0.00 0.00 0.00 67 1009.4
20260505170911 66 0 0.0 0.0 0.00 0.00 0.00 67 1009.4
20260505165912 66 0 0.0 0.0 0.00 0.00 0.00 66 1009.4
20260505165412 66 0 0.0 0.0 0.00 0.00 0.00 66 1009.5
20260505164912 66 0 0.0 0.0 0.00 0.00 0.00 66 1009.5
20260505164412 66 0 0.0 0.0 0.00 0.00 0.00 66 1009.5
20260505162912 67 0 0.0 0.0 0.00 0.00 0.00 66 1009.5
20260505162412 67 0 0.0 0.0 0.00 0.00 0.00 66 1009.4
20260505161912 67 0 0.0 0.0 0.00 0.00 0.00 65 1009.4
20260505160912 67 0 0.0 0.0 0.00 0.00 0.00 65 1009.3
20260505160412 68 0 0.0 0.0 0.00 0.00 0.00 63 1009.3
20260505152912 68 0 0.0 0.0 0.00 0.00 0.00 65 1009.1
20260505152412 68 0 0.0 0.0 0.00 0.00 0.00 66 1009.1
20260505151912 68 0 0.0 0.0 0.00 0.00 0.00 66 1009.0
20260505151412 67 0 0.0 0.0 0.00 0.00 0.00 68 1009.2
20260505150913 67 0 0.0 0.0 0.00 0.00 0.00 67 1009.1
20260505150412 67 0 0.0 0.0 0.00 0.00 0.00 66 1009.1
20260505140412 62 0 0.0 0.0 0.00 0.00 0.00 79 1008.3
20260505124912 59 0 0.0 0.0 0.00 0.00 0.00 88 1008.6
20260505123912 58 0 0.0 0.0 0.00 0.00 0.00 88 1008.6
20260505123413 58 0 0.0 0.0 0.00 0.00 0.00 88 1008.6
20260505121912 58 0 0.0 0.0 0.00 0.00 0.00 88 1008.7
20260505121412 58 0 0.0 0.0 0.00 0.00 0.00 88 1008.7
20260505120912 58 0 0.0 0.0 0.00 0.00 0.00 88 1008.6
20260505120413 58 0 0.0 0.0 0.00 0.00 0.00 88 1008.6
20260505115912 58 0 0.0 0.0 0.00 0.00 0.00 88 1008.7
20260505115412 58 0 0.0 0.0 0.00 0.00 0.00 88 1008.7
20260505114912 58 0 0.0 0.0 0.00 0.00 0.00 87 1008.6
20260505114412 58 0 0.0 0.0 0.00 0.00 0.00 87 1008.6
20260505113912 58 0 0.0 0.0 0.00 0.00 0.00 87 1008.5
20260505113412 58 0 0.0 0.0 0.00 0.00 0.00 87 1008.4
20260505112912 58 0 0.0 0.0 0.00 0.00 0.00 86 1008.4
20260505112412 58 0 0.0 0.0 0.00 0.00 0.00 86 1008.1
20260505111912 58 0 0.0 0.0 0.00 0.00 0.00 86 1008.2
20260505110912 58 0 0.0 0.0 0.00 0.00 0.00 84 1008.4
20260505110412 58 0 0.0 0.0 0.00 0.00 0.00 84 1008.4
20260505101912 61 0 0.0 0.0 0.00 0.00 0.00 75 1008.8
20260505101412 62 0 0.0 0.0 0.00 0.00 0.00 74 1008.7
20260505100912 62 0 0.0 0.0 0.00 0.00 0.00 71 1008.7
20260505100413 62 0 0.0 0.0 0.00 0.00 0.00 69 1008.7
20260505095412 62 0 0.0 0.0 0.00 0.00 0.00 67 1008.6
20260505094912 63 0 0.0 0.0 0.00 0.00 0.00 66 1008.4
20260505094412 63 0 0.0 0.0 0.00 0.00 0.00 65 1008.2
20260505093912 63 0 0.0 0.0 0.00 0.00 0.00 65 1008.1
20260505093412 63 0 0.0 0.0 0.00 0.00 0.00 65 1008.1
20260505092412 63 0 0.0 0.0 0.00 0.00 0.00 65 1008.0
20260505091913 63 0 0.0 0.0 0.00 0.00 0.00 65 1007.9
20260505091412 63 0 0.0 0.0 0.00 0.00 0.00 65 1007.9
20260505090912 63 0 0.0 0.0 0.00 0.00 0.00 64 1007.9
20260505090412 63 0 0.0 0.0 0.00 0.00 0.00 64 1008.0
20260505085412 64 0 0.0 0.0 0.00 0.00 0.00 64 1007.9
20260505084912 64 0 0.0 0.0 0.00 0.00 0.00 64 1007.9
20260505084412 64 0 0.0 0.0 0.00 0.00 0.00 63 1007.8
20260505083912 64 0 0.0 0.0 0.00 0.00 0.00 63 1007.6
20260505083412 64 0 0.0 0.0 0.00 0.00 0.00 63 1007.4
20260505082913 64 0 0.0 0.0 0.00 0.00 0.00 63 1007.3
20260505082412 64 0 0.0 0.0 0.00 0.00 0.00 62 1007.3
20260505081912 64 0 0.0 0.0 0.00 0.00 0.00 62 1007.3
20260505081412 65 0 0.0 0.0 0.00 0.00 0.00 62 1007.3
20260505080913 65 0 0.0 0.0 0.00 0.00 0.00 62 1007.3
20260505080412 65 0 0.0 0.0 0.00 0.00 0.00 62 1007.3
20260505075912 65 0 0.0 0.0 0.00 0.00 0.00 62 1007.3
20260505075412 65 0 0.0 0.0 0.00 0.00 0.00 61 1007.3
20260505074912 65 0 0.0 0.0 0.00 0.00 0.00 61 1007.3
20260505074412 65 0 0.0 0.0 0.00 0.00 0.00 61 1007.2
20260505073912 65 0 0.0 0.0 0.00 0.00 0.00 60 1007.0
20260505073412 66 0 0.0 0.0 0.00 0.00 0.00 61 1007.0
20260505072913 66 0 0.0 0.0 0.00 0.00 0.00 61 1007.1
20260505072412 66 0 0.0 0.0 0.00 0.00 0.00 61 1007.1
20260505071912 65 0 0.0 0.0 0.00 0.00 0.00 61 1007.1
20260505071412 65 0 0.0 0.0 0.00 0.00 0.00 61 1007.0
20260505070912 65 0 0.0 0.0 0.00 0.00 0.00 61 1007.1
20260505070412 66 0 0.0 0.0 0.00 0.00 0.00 61 1007.0
20260505065912 66 0 0.0 0.0 0.00 0.00 0.00 61 1006.9
20260505065413 66 0 0.0 0.0 0.00 0.00 0.00 61 1006.8
20260505064912 66 0 0.0 0.0 0.00 0.00 0.00 61 1006.7
20260505064412 65 0 0.0 0.0 0.00 0.00 0.00 61 1006.8
20260505063912 66 0 0.0 0.0 0.00 0.00 0.00 61 1006.8
20260505063412 66 0 0.0 0.0 0.00 0.00 0.00 61 1006.9
20260505062912 66 0 0.0 0.0 0.00 0.00 0.00 60 1007.0
20260505062413 66 0 0.0 0.0 0.00 0.00 0.00 60 1006.8
20260505061912 66 0 0.0 0.0 0.00 0.00 0.00 60 1006.7
20260505061413 66 0 0.0 0.0 0.00 0.00 0.00 61 1006.7
20260505060412 66 0 0.0 0.0 0.00 0.00 0.00 61 1006.5
20260505055912 66 0 0.0 0.0 0.00 0.00 0.00 61 1006.5
20260505055413 66 0 0.0 0.0 0.00 0.00 0.00 61 1006.4
20260505054912 66 0 0.0 0.0 0.00 0.00 0.00 60 1006.4
20260505054412 67 0 0.0 0.0 0.00 0.00 0.00 60 1006.3
20260505053913 67 0 0.0 0.0 0.00 0.00 0.00 60 1006.3
20260505053412 67 0 0.0 0.0 0.00 0.00 0.00 60 1006.3
20260505052913 67 0 0.0 0.0 0.00 0.00 0.00 59 1006.2
20260505052412 67 0 0.0 0.0 0.00 0.00 0.00 59 1006.3
20260505051912 67 0 0.0 0.0 0.00 0.00 0.00 59 1006.3
20260505051412 67 0 0.0 0.0 0.00 0.00 0.00 59 1006.4
20260505050912 67 0 0.0 0.0 0.00 0.00 0.00 60 1006.5
20260505050412 67 0 0.0 0.0 0.00 0.00 0.00 60 1006.6
20260505041412 67 0 0.0 0.0 0.00 0.00 0.00 62 1006.9
20260505040912 67 0 0.0 0.0 0.00 0.00 0.00 61 1006.9
20260505040415 67 0 0.0 0.0 0.00 0.00 0.00 61 1006.9
20260505035912 67 0 0.0 0.0 0.00 0.00 0.00 62 1006.9
20260505035412 67 0 0.0 0.0 0.00 0.00 0.00 62 1007.0
20260505034912 67 0 0.0 0.0 0.00 0.00 0.00 61 1007.0
20260505033912 67 0 0.0 0.0 0.00 0.00 0.00 61 1006.9
20260505033412 68 0 0.0 0.0 0.00 0.00 0.00 61 1006.9
20260505032912 68 0 0.0 0.0 0.00 0.00 0.00 61 1006.8
20260505032412 68 0 0.0 0.0 0.00 0.00 0.00 61 1006.8
20260505031912 68 0 0.0 0.0 0.00 0.00 0.00 60 1006.8
20260505031413 68 0 0.0 0.0 0.00 0.00 0.00 61 1006.8
20260505030912 68 0 0.0 0.0 0.00 0.00 0.00 60 1006.8
20260505030413 68 0 0.0 0.0 0.00 0.00 0.00 60 1006.7
20260505025912 68 0 0.0 0.0 0.00 0.00 0.00 60 1006.7
20260505024912 68 0 0.0 0.0 0.00 0.00 0.00 60 1006.6
20260505024412 68 0 0.0 0.0 0.00 0.00 0.00 60 1006.6
20260505023912 68 0 0.0 0.0 0.00 0.00 0.00 60 1006.4
20260505023412 68 0 0.0 0.0 0.00 0.00 0.00 59 1006.3
20260505022912 68 0 0.0 0.0 0.00 0.00 0.00 59 1006.3
20260505022412 68 0 0.0 0.0 0.00 0.00 0.00 59 1006.3
20260505021913 68 0 0.0 0.0 0.00 0.00 0.00 59 1006.2
20260505021412 68 0 0.0 0.0 0.00 0.00 0.00 58 1006.1
20260505020912 68 0 0.0 0.0 0.00 0.00 0.00 58 1006.1
20260505020412 68 0 0.0 0.0 0.00 0.00 0.00 58 1006.1
20260505015912 68 0 0.0 0.0 0.00 0.00 0.00 58 1006.0
20260505015412 68 0 0.0 0.0 0.00 0.00 0.00 57 1006.0
20260505014912 69 0 0.0 0.0 0.00 0.00 0.00 57 1006.0
20260505014412 69 0 0.0 0.0 0.00 0.00 0.00 57 1005.9
20260505013913 69 0 0.0 0.0 0.00 0.00 0.00 56 1005.9
20260505013412 69 0 0.0 0.0 0.00 0.00 0.00 56 1005.8
20260505012913 69 0 0.0 0.0 0.00 0.00 0.00 56 1005.7
20260505012412 69 0 0.0 0.0 0.00 0.00 0.00 55 1005.7
20260505011912 69 0 0.0 0.0 0.00 0.00 0.00 55 1005.6
20260505011412 70 0 0.0 0.0 0.00 0.00 0.00 54 1005.6
20260505010912 70 0 0.0 0.0 0.00 0.00 0.00 54 1005.5
20260505010412 70 0 0.0 0.0 0.00 0.00 0.00 54 1005.5
20260505005912 70 0 0.0 0.0 0.00 0.00 0.00 53 1005.6
20260505005412 70 0 0.0 0.0 0.00 0.00 0.00 52 1005.6
20260505004912 71 0 0.0 0.0 0.00 0.00 0.00 51 1005.5
20260505004412 71 0 0.0 0.0 0.00 0.00 0.00 51 1005.5
20260505003913 71 0 0.0 0.0 0.00 0.00 0.00 50 1005.5
20260505002412 72 0 0.0 0.0 0.00 0.00 0.00 49 1005.7
20260505001912 72 0 0.0 0.0 0.00 0.00 0.00 49 1005.7
20260505000912 72 0 0.0 0.0 0.00 0.00 0.00 50 1005.8
20260505000413 72 0 0.0 0.0 0.00 0.00 0.00 50 1005.7
20260504235413 72 0 0.0 0.0 0.00 0.00 0.00 52 1005.8
20260504234413 73 0 0.0 0.0 0.00 0.00 0.00 53 1005.9
20260504233912 73 0 0.0 0.0 0.00 0.00 0.00 52 1005.8
20260504233413 73 0 0.0 0.0 0.00 0.00 0.00 52 1005.8
20260504232912 73 0 0.0 0.0 0.00 0.00 0.00 53 1005.8
20260504232413 72 0 0.0 0.0 0.00 0.00 0.00 55 1005.9
20260504231912 72 0 0.0 0.0 0.00 0.00 0.00 56 1005.9
20260504230912 72 0 0.0 0.0 0.00 0.00 0.00 55 1006.1
20260504230413 72 0 0.0 0.0 0.00 0.00 0.00 55 1006.1
20260504225912 73 0 0.0 0.0 0.00 0.00 0.00 54 1006.2
20260504224913 73 0 0.0 0.0 0.00 0.00 0.00 55 1006.3
20260504224412 73 0 0.0 0.0 0.00 0.00 0.00 55 1006.3
20260504223912 72 0 0.0 0.0 0.00 0.00 0.00 55 1006.4
20260504223412 72 0 0.0 0.0 0.00 0.00 0.00 56 1006.4
20260504222913 72 0 0.0 0.0 0.00 0.00 0.00 55 1006.5
20260504222412 72 0 0.0 0.0 0.00 0.00 0.00 54 1006.5
20260504221912 72 0 0.0 0.0 0.00 0.00 0.00 54 1006.3
20260504220912 72 0 0.0 0.0 0.00 0.00 0.00 53 1006.8
20260504215412 73 0 0.0 0.0 0.00 0.00 0.00 52 1006.9
20260504214912 72 0 0.0 0.0 0.00 0.00 0.00 52 1007.0
20260504213912 72 0 0.0 0.0 0.00 0.00 0.00 52 1007.0
20260504212912 72 0 0.0 0.0 0.00 0.00 0.00 52 1007.2
20260504212413 72 0 0.0 0.0 0.00 0.00 0.00 51 1007.3
20260504211912 72 0 0.0 0.0 0.00 0.00 0.00 53 1007.3
20260504210913 72 0 0.0 0.0 0.00 0.00 0.00 53 1007.4
20260504210412 72 0 0.0 0.0 0.00 0.00 0.00 54 1007.5
20260504205912 72 0 0.0 0.0 0.00 0.00 0.00 54 1007.6
20260504205412 72 0 0.0 0.0 0.00 0.00 0.00 54 1007.5
20260504204912 72 0 0.0 0.0 0.00 0.00 0.00 53 1007.7
20260504204412 72 0 0.0 0.0 0.00 0.00 0.00 58 1007.7
20260504203912 71 0 0.0 0.0 0.00 0.00 0.00 57 1007.6
20260504203412 71 0 0.0 0.0 0.00 0.00 0.00 57 1007.6
20260504202912 70 0 0.0 0.0 0.00 0.00 0.00 59 1007.7
20260504202412 70 0 0.0 0.0 0.00 0.00 0.00 58 1007.7
20260504201912 70 0 0.0 0.0 0.00 0.00 0.00 59 1007.5
20260504201413 69 0 0.0 0.0 0.00 0.00 0.00 60 1007.5
20260504200913 69 0 0.0 0.0 0.00 0.00 0.00 61 1007.9
20260504200412 68 0 0.0 0.0 0.00 0.00 0.00 62 1008.1
20260504195912 68 0 0.0 0.0 0.00 0.00 0.00 64 1007.9
20260504195412 67 0 0.0 0.0 0.00 0.00 0.00 63 1008.2
20260504194912 66 0 0.0 0.0 0.00 0.00 0.00 65 1008.5
20260504194412 66 0 0.0 0.0 0.00 0.00 0.00 65 1008.6
20260504193912 66 0 0.0 0.0 0.00 0.00 0.00 65 1008.8
20260504193413 66 0 0.0 0.0 0.00 0.00 0.00 65 1009.1
20260504192912 66 0 0.0 0.0 0.00 0.00 0.00 64 1008.7
20260504192413 66 0 0.0 0.0 0.00 0.00 0.00 63 1009.4
20260504191912 67 0 0.0 0.0 0.00 0.00 0.00 62 1009.1
20260504191413 67 0 0.0 0.0 0.00 0.00 0.00 62 1009.6
20260504190912 66 0 0.0 0.0 0.00 0.00 0.00 63 1009.3
20260504190413 67 0 0.0 0.0 0.00 0.00 0.00 64 1009.3
20260504185912 67 0 0.0 0.0 0.00 0.00 0.00 61 1009.2
20260504185412 67 0 0.0 0.0 0.00 0.00 0.00 60 1009.1
20260504184912 68 0 0.0 0.0 0.00 0.00 0.00 59 1009.0
20260504184412 68 0 0.0 0.0 0.00 0.00 0.00 59 1008.6